Hoernerstown, Pennsylvania
Current Conditions -  °F | °C
As of 7:56 AM on Friday 24 Oct 2014 (Local Time) from KMDT Reporting Station
Few Clouds Few Clouds  
Wind Chill: 54°   Ceiling: Unl
Heat Index: 54°   Visibility: 10mi
Dew Point: 43°   Wind: 12mph
Humidity: 66%   Direction: 310°NW
Pressure: 29.92"   Gusts: NA
Location:  40.2988°N, 76.709°W
Report Text: KMDT 241156Z 31010KT 10SM FEW040 12/06 A2992 RMK AO2 SLP132 T01220061 10139 20122 51004
Loading
Personal Weather Stations






























Interactive Weather Map
Tropical Storm Tracking
New forecast layout! Learn more

10-Day Weather Forecast

Advertisements
Track Severe Weather on mobile